Time;durP1;ratioP1;P1;durP2;ratioP2;P2;SDS_P1;SDS_P2;PMS_P1;PMS_P2;Temp;Humidity;BMP_temperature;BMP_pressure;BME280_temperature;BME280_humidity;BME280_pressure;Samples;Min_cycle;Max_cycle;Signal;HPM_P1;HPM_P2
2022/04/10 00:00:42;;;;;;;7.63;5.43;;;;;;;7.51;76.89;98078.16;5006721;28;20067;-68
2022/04/10 00:03:06;;;;;;;9.85;5.97;;;;;;;7.56;76.36;98081.22;5017125;28;20052;-68
2022/04/10 00:05:32;;;;;;;8.35;5.40;;;;;;;7.56;76.75;98069.81;5016544;28;20037;-72
2022/04/10 00:07:56;;;;;;;8.15;5.70;;;;;;;7.48;76.38;98072.25;5012877;28;20079;-67
2022/04/10 00:10:21;;;;;;;11.43;5.43;;;;;;;7.59;76.98;98080.13;5000083;28;20542;-66
2022/04/10 00:12:46;;;;;;;10.77;5.63;;;;;;;7.59;76.71;98064.22;5015071;28;20041;-70
2022/04/10 00:15:11;;;;;;;8.45;5.53;;;;;;;7.51;76.90;98067.53;4997334;28;20044;-71
2022/04/10 00:17:36;;;;;;;9.98;5.43;;;;;;;7.58;76.42;98063.38;5001294;28;20119;-68
2022/04/10 00:20:00;;;;;;;7.00;4.80;;;;;;;7.57;76.35;98055.56;5010163;28;20136;-71
2022/04/10 00:22:25;;;;;;;8.90;5.55;;;;;;;7.54;76.29;98054.03;5000725;28;20402;-70
2022/04/10 00:24:50;;;;;;;10.07;6.15;;;;;;;7.50;76.60;98060.56;5014813;28;20064;-72
2022/04/10 00:27:16;;;;;;;10.07;5.60;;;;;;;7.63;76.62;98053.25;5010783;28;20492;-76
2022/04/10 00:29:41;;;;;;;8.18;5.60;;;;;;;7.62;76.43;98046.25;5010648;28;20064;-75
2022/04/10 00:32:07;;;;;;;6.75;5.47;;;;;;;7.48;76.72;98049.22;5019835;28;20095;-73
2022/04/10 00:34:32;;;;;;;7.28;5.22;;;;;;;7.53;76.56;98043.53;5018949;28;20033;-73
2022/04/10 00:36:56;;;;;;;9.25;4.68;;;;;;;7.58;76.57;98036.88;5020223;28;20053;-73
2022/04/10 00:39:21;;;;;;;9.15;5.70;;;;;;;7.49;76.81;98032.34;5009356;28;20041;-74
2022/04/10 00:41:46;;;;;;;7.03;4.85;;;;;;;7.39;76.93;98044.69;5017295;28;20484;-73
2022/04/10 00:44:11;;;;;;;7.30;5.35;;;;;;;7.45;77.00;98032.75;5018409;28;20059;-71
2022/04/10 00:46:38;;;;;;;7.70;5.38;;;;;;;7.38;77.56;98035.06;5008016;28;20040;-69
2022/04/10 00:49:04;;;;;;;7.25;5.05;;;;;;;7.38;77.63;98032.41;5021567;28;20041;-70
2022/04/10 00:51:40;;;;;;;10.95;5.35;;;;;;;7.37;77.27;98030.72;5016803;28;20041;-65
2022/04/10 00:54:05;;;;;;;7.30;5.47;;;;;;;7.39;77.14;98030.59;5015410;28;20106;-69
2022/04/10 00:56:31;;;;;;;8.23;4.80;;;;;;;7.26;77.58;98028.13;4990605;28;20057;-68
2022/04/10 00:58:56;;;;;;;7.75;5.35;;;;;;;7.15;77.81;98033.50;4999349;28;20103;-70
2022/04/10 01:01:21;;;;;;;9.52;5.43;;;;;;;7.12;78.64;98028.44;5006529;28;20053;-68
2022/04/10 01:03:46;;;;;;;10.38;6.15;;;;;;;7.05;79.70;98040.53;5017492;28;20094;-69
2022/04/10 01:06:10;;;;;;;11.45;6.40;;;;;;;7.04;80.11;98033.53;4991217;28;20052;-70
2022/04/10 01:08:36;;;;;;;7.55;5.70;;;;;;;7.09;79.24;98034.84;5017145;28;20029;-68
2022/04/10 01:11:01;;;;;;;8.63;6.00;;;;;;;7.11;79.34;98029.44;5016501;28;20045;-68
2022/04/10 01:13:26;;;;;;;9.57;6.43;;;;;;;6.97;79.79;98029.72;4999691;28;20037;-71
2022/04/10 01:15:51;;;;;;;7.18;5.68;;;;;;;7.01;79.92;98029.31;5007728;28;20139;-71
2022/04/10 01:18:16;;;;;;;8.98;5.53;;;;;;;7.10;79.53;98028.59;5016337;28;20139;-70
2022/04/10 01:20:42;;;;;;;11.23;5.63;;;;;;;7.06;78.97;98028.97;5007807;28;20049;-68
2022/04/10 01:23:08;;;;;;;9.68;5.78;;;;;;;7.01;79.64;98024.03;5015514;28;20041;-70
2022/04/10 01:25:35;;;;;;;15.18;6.90;;;;;;;6.90;80.11;98024.06;5014510;28;20102;-70
2022/04/10 01:28:01;;;;;;;6.30;4.07;;;;;;;6.97;80.29;98030.56;4997772;28;20040;-70
2022/04/10 01:30:28;;;;;;;8.88;6.45;;;;;;;6.92;80.19;98023.00;4998733;28;20597;-66
2022/04/10 01:32:53;;;;;;;8.43;6.05;;;;;;;6.93;80.69;98019.38;4999915;28;20500;-66
2022/04/10 01:35:25;;;;;;;11.30;7.20;;;;;;;7.08;80.35;98011.97;5009399;28;20048;-66
2022/04/10 01:37:52;;;;;;;9.38;6.57;;;;;;;7.07;79.91;98020.03;5010684;28;20040;-68
2022/04/10 01:40:21;;;;;;;8.85;6.72;;;;;;;7.05;79.98;98027.28;4994826;28;20056;-66
2022/04/10 01:42:48;;;;;;;9.85;7.40;;;;;;;7.13;79.76;98016.88;5017681;28;20683;-67
2022/04/10 01:45:13;;;;;;;11.65;7.63;;;;;;;6.91;80.48;98012.50;5020555;28;20048;-65
2022/04/10 01:47:38;;;;;;;12.90;7.95;;;;;;;6.79;81.50;98013.53;5010254;28;20133;-65
2022/04/10 01:50:03;;;;;;;14.95;8.13;;;;;;;6.89;81.30;98002.03;4982425;28;20068;-67
2022/04/10 01:52:28;;;;;;;15.10;8.40;;;;;;;6.87;81.53;97996.06;4996227;28;20029;-67
2022/04/10 01:54:53;;;;;;;11.20;8.10;;;;;;;6.90;81.99;98005.53;5001475;28;20492;-67
2022/04/10 01:57:18;;;;;;;15.82;8.18;;;;;;;6.85;81.65;98000.63;5000704;28;20570;-64
2022/04/10 01:59:43;;;;;;;11.82;7.95;;;;;;;6.95;81.58;97994.56;5023682;28;20139;-64
2022/04/10 02:02:08;;;;;;;12.32;8.43;;;;;;;6.85;82.28;97997.97;5020579;28;20045;-66
2022/04/10 02:04:34;;;;;;;11.82;9.70;;;;;;;6.72;83.58;97993.81;5023691;28;20048;-71
2022/04/10 02:06:59;;;;;;;14.00;9.07;;;;;;;6.81;83.92;97988.59;5020585;28;20496;-71
2022/04/10 02:09:25;;;;;;;6.75;4.38;;;;;;;6.99;83.07;97980.09;5018797;28;20123;-72
2022/04/10 02:11:51;;;;;;;12.02;7.65;;;;;;;7.01;81.95;97981.63;5003242;28;20456;-68
2022/04/10 02:14:16;;;;;;;14.23;8.02;;;;;;;7.02;82.14;97979.84;5017222;28;20326;-68
2022/04/10 02:16:42;;;;;;;11.23;8.45;;;;;;;6.96;82.51;97985.66;5000863;28;20127;-70
2022/04/10 02:19:07;;;;;;;12.27;9.45;;;;;;;6.97;83.01;97982.88;5007412;28;20055;-69
2022/04/10 02:21:34;;;;;;;12.85;8.65;;;;;;;6.98;83.22;97978.44;5006196;28;20495;-68
2022/04/10 02:23:59;;;;;;;12.93;8.27;;;;;;;6.98;83.82;97975.78;5016327;28;20049;-69
2022/04/10 02:26:24;;;;;;;10.82;8.50;;;;;;;6.98;84.32;97978.44;5002922;28;20048;-67
2022/04/10 02:28:49;;;;;;;13.32;8.23;;;;;;;7.14;83.27;97978.81;5005969;28;20048;-68
2022/04/10 02:31:14;;;;;;;16.88;10.00;;;;;;;7.09;82.80;97968.63;5014073;28;20037;-66
2022/04/10 02:33:39;;;;;;;13.23;8.27;;;;;;;7.29;82.04;97972.22;4997510;28;20041;-69
2022/04/10 02:36:06;;;;;;;10.23;7.60;;;;;;;7.21;82.30;97982.66;5003569;28;20045;-69
2022/04/10 02:38:32;;;;;;;12.50;9.07;;;;;;;7.19;82.40;97977.47;4997286;28;20047;-71
2022/04/10 02:40:57;;;;;;;16.17;9.05;;;;;;;7.15;83.31;97977.84;5008057;28;20041;-70
2022/04/10 02:43:22;;;;;;;16.13;9.82;;;;;;;7.12;83.20;97967.50;5017044;28;20140;-70
2022/04/10 02:45:50;;;;;;;15.52;11.27;;;;;;;7.16;83.35;97984.81;5005984;28;20119;-71
2022/04/10 02:48:14;;;;;;;16.08;10.57;;;;;;;7.06;84.18;97987.41;5020207;28;20139;-69
2022/04/10 02:50:39;;;;;;;13.93;10.43;;;;;;;7.11;84.70;97995.00;5012957;28;20037;-71
2022/04/10 02:53:06;;;;;;;15.18;10.05;;;;;;;7.30;83.61;97995.13;5015246;28;20090;-72
2022/04/10 02:55:33;;;;;;;18.75;10.90;;;;;;;7.19;83.90;97998.66;5005606;28;20119;-66
2022/04/10 02:58:16;;;;;;;14.80;9.38;;;;;;;7.25;83.55;97997.28;5000329;28;20118;-67
2022/04/10 03:01:01;;;;;;;15.85;11.38;;;;;;;7.32;83.39;98001.13;4986892;28;20056;-65
2022/04/10 03:03:45;;;;;;;13.40;10.10;;;;;;;7.25;83.77;97997.28;5014691;28;20048;-66
2022/04/10 03:06:29;;;;;;;12.60;9.88;;;;;;;7.16;84.38;97998.06;5014539;28;20047;-63
2022/04/10 03:09:12;;;;;;;14.68;10.20;;;;;;;7.24;84.22;98012.34;5014722;28;20051;-66
2022/04/10 03:11:56;;;;;;;14.82;10.68;;;;;;;7.10;85.20;98003.91;5018760;28;20403;-65
2022/04/10 03:14:40;;;;;;;13.57;9.55;;;;;;;7.22;85.22;98005.53;5014464;28;20485;-65
2022/04/10 03:17:24;;;;;;;25.15;10.80;;;;;;;7.22;84.58;97997.56;5016418;28;20530;-64
2022/04/10 03:20:11;;;;;;;14.43;10.35;;;;;;;7.26;84.27;97996.31;5014992;28;20086;-64
2022/04/10 03:22:55;;;;;;;15.23;10.80;;;;;;;7.17;84.86;97995.31;5000110;28;20051;-67
2022/04/10 03:25:39;;;;;;;20.08;12.07;;;;;;;7.16;84.94;97987.47;5012144;28;20075;-65
2022/04/10 03:28:23;;;;;;;16.05;11.68;;;;;;;7.12;85.41;97983.38;4997009;28;20086;-65
2022/04/10 03:31:07;;;;;;;14.23;10.13;;;;;;;7.20;85.29;97989.75;5000792;28;20047;-64
2022/04/10 03:33:51;;;;;;;18.95;10.23;;;;;;;7.27;85.59;97995.38;5007685;28;20128;-64
2022/04/10 03:36:34;;;;;;;16.90;11.65;;;;;;;7.15;85.87;97999.03;5014739;28;20048;-64
2022/04/10 03:39:17;;;;;;;16.23;11.25;;;;;;;7.22;86.00;97987.78;5019622;28;20085;-62
2022/04/10 03:42:01;;;;;;;18.58;10.98;;;;;;;7.27;86.21;97990.06;5019131;28;20481;-62
2022/04/10 03:44:45;;;;;;;16.15;11.32;;;;;;;7.22;85.86;97997.56;5006923;28;20047;-64
2022/04/10 03:47:28;;;;;;;12.77;10.07;;;;;;;7.33;85.82;97996.66;5014828;28;20098;-62
2022/04/10 03:50:12;;;;;;;9.35;6.60;;;;;;;7.42;85.06;98009.16;5018947;28;20094;-62
2022/04/10 03:52:57;;;;;;;15.15;10.77;;;;;;;7.38;84.01;98015.66;4980642;28;20095;-74
2022/04/10 03:55:40;;;;;;;16.75;10.82;;;;;;;7.42;84.20;98020.59;5005677;28;20090;-67
2022/04/10 03:58:24;;;;;;;21.27;11.10;;;;;;;7.40;84.05;98025.19;4979449;28;20195;-66
2022/04/10 04:01:08;;;;;;;14.90;9.02;;;;;;;7.48;83.56;98025.38;4992580;28;20082;-69
2022/04/10 04:03:51;;;;;;;13.27;8.18;;;;;;;7.51;83.30;98035.72;5006591;28;20098;-69
2022/04/10 04:06:35;;;;;;;16.48;9.30;;;;;;;7.46;82.87;98035.25;5002574;28;20423;-68
2022/04/10 04:09:18;;;;;;;12.55;8.50;;;;;;;7.51;82.78;98043.66;5013648;28;20102;-67
2022/04/10 04:12:04;;;;;;;16.50;11.32;;;;;;;7.51;83.12;98053.44;5007199;28;20132;-66
2022/04/10 04:14:47;;;;;;;15.40;11.82;;;;;;;7.41;82.38;98044.56;4989218;28;20051;-68
2022/04/10 04:17:31;;;;;;;14.20;10.18;;;;;;;7.32;83.03;98054.16;4986224;28;20052;-68
2022/04/10 04:20:14;;;;;;;15.55;9.52;;;;;;;7.34;83.42;98046.03;5000126;28;20055;-67
2022/04/10 04:22:59;;;;;;;;;;;;;;;7.47;82.66;98052.84;4999742;28;20048;-65
2022/04/10 04:25:43;;;;;;;16.45;10.35;;;;;;;7.29;83.15;98049.09;5014405;28;19966;-78
2022/04/10 04:28:32;;;;;;;16.10;11.23;;;;;;;7.23;83.92;98041.63;4999863;28;20052;-68
2022/04/10 04:31:16;;;;;;;14.35;10.55;;;;;;;7.20;84.57;98045.41;5013908;28;20388;-68
2022/04/10 04:34:00;;;;;;;15.40;10.10;;;;;;;7.33;83.71;98047.88;4998079;28;20059;-67
2022/04/10 04:36:43;;;;;;;16.65;10.85;;;;;;;7.28;83.98;98042.94;5018577;28;20504;-67
2022/04/10 04:39:27;;;;;;;15.90;11.23;;;;;;;7.32;83.39;98048.84;5034144;28;20090;-67
2022/04/10 04:42:11;;;;;;;13.70;9.45;;;;;;;7.37;83.59;98061.69;5034584;28;20579;-66
2022/04/10 04:44:54;;;;;;;15.70;10.30;;;;;;;7.32;83.77;98056.81;4999295;28;20490;-67
2022/04/10 04:47:38;;;;;;;17.20;10.30;;;;;;;7.31;83.78;98067.53;5019932;28;20048;-66
2022/04/10 04:50:23;;;;;;;14.90;10.98;;;;;;;7.28;83.67;98064.16;5004965;28;20059;-66
2022/04/10 04:53:07;;;;;;;;;;;;;;;7.40;84.63;98064.09;4994747;28;20123;-67
2022/04/10 04:55:52;;;;;;;16.92;11.38;;;;;;;7.27;84.70;98070.41;4999672;28;19954;-67
2022/04/10 04:58:35;;;;;;;15.30;11.20;;;;;;;7.37;84.20;98065.19;4999411;28;20134;-66
2022/04/10 05:01:20;;;;;;;12.98;9.60;;;;;;;7.48;84.04;98074.91;4985773;28;20043;-66
2022/04/10 05:04:05;;;;;;;15.15;11.15;;;;;;;7.37;83.76;98075.78;5002039;28;20051;-67
2022/04/10 05:06:49;;;;;;;17.03;10.77;;;;;;;7.29;84.99;98087.03;5003324;28;20044;-67
2022/04/10 05:09:33;;;;;;;16.48;11.98;;;;;;;7.37;84.03;98085.56;5003354;28;20110;-67
2022/04/10 05:12:16;;;;;;;18.73;11.77;;;;;;;7.39;84.37;98091.56;5018496;28;20047;-68
2022/04/10 05:15:07;;;;;;;17.13;11.75;;;;;;;7.35;85.07;98093.63;5002743;28;20067;-66
2022/04/10 05:17:51;;;;;;;19.92;12.63;;;;;;;7.35;85.15;98096.28;4989200;28;20140;-67
2022/04/10 05:20:37;;;;;;;16.60;10.57;;;;;;;7.43;85.41;98103.63;5002908;28;20422;-67
2022/04/10 05:23:41;;;;;;;15.73;10.10;;;;;;;7.44;85.26;98103.50;5002975;28;20059;-66
2022/04/10 05:26:30;;;;;;;19.25;11.65;;;;;;;7.40;85.23;98111.81;5002727;28;20056;-67
2022/04/10 05:29:17;;;;;;;17.27;11.05;;;;;;;7.53;84.34;98110.69;5003008;28;20052;-69
2022/04/10 05:32:00;;;;;;;21.92;11.35;;;;;;;7.53;84.52;98117.78;5002713;28;20499;-70
2022/04/10 05:34:45;;;;;;;16.85;11.15;;;;;;;7.56;85.25;98123.66;5002891;28;20557;-68
2022/04/10 05:37:29;;;;;;;21.27;11.55;;;;;;;7.53;84.71;98128.41;5002642;28;20454;-68
2022/04/10 05:40:16;;;;;;;17.52;10.55;;;;;;;7.52;84.57;98127.56;5002645;28;20047;-71
2022/04/10 05:43:00;;;;;;;15.88;11.38;;;;;;;7.52;85.15;98132.84;5002402;28;20059;-71
2022/04/10 05:45:44;;;;;;;13.35;10.38;;;;;;;7.53;85.41;98128.41;4988979;28;20048;-69
2022/04/10 05:48:28;;;;;;;15.65;10.13;;;;;;;7.62;85.27;98123.16;4988752;28;20521;-68
2022/04/10 05:51:12;;;;;;;18.23;11.20;;;;;;;7.59;84.68;98118.09;5002224;28;20466;-67
2022/04/10 05:53:55;;;;;;;16.15;11.60;;;;;;;7.68;84.05;98116.50;5002043;28;20083;-69
2022/04/10 05:56:40;;;;;;;13.02;9.57;;;;;;;7.75;84.69;98120.34;5002019;28;20087;-70
2022/04/10 05:59:23;;;;;;;14.75;9.60;;;;;;;7.81;84.52;98142.84;5016275;28;20060;-68
2022/04/10 06:02:09;;;;;;;15.85;11.35;;;;;;;7.61;84.64;98158.59;4988543;28;20118;-69
2022/04/10 06:04:53;;;;;;;16.02;10.05;;;;;;;7.65;85.46;98160.06;4988419;28;20457;-68
2022/04/10 06:07:36;;;;;;;17.20;10.55;;;;;;;7.63;85.31;98167.28;5001919;28;20052;-67
2022/04/10 06:10:20;;;;;;;16.73;11.02;;;;;;;7.65;85.61;98170.66;5002051;28;20457;-69
2022/04/10 06:13:08;;;;;;;15.85;10.93;;;;;;;7.73;85.27;98177.97;5016244;28;20132;-68
2022/04/10 06:15:33;;;;;;;16.33;11.18;;;;;;;7.78;85.20;98182.91;4998510;28;20126;-67
2022/04/10 06:17:58;;;;;;;17.52;13.50;;;;;;;7.78;85.62;98186.41;5016477;28;20129;-68
2022/04/10 06:20:23;;;;;;;18.70;11.60;;;;;;;7.81;85.48;98191.44;4998767;28;20134;-67
2022/04/10 06:22:48;;;;;;;15.38;9.75;;;;;;;7.87;85.33;98192.75;4998897;28;20155;-69
2022/04/10 06:25:16;;;;;;;13.98;10.82;;;;;;;7.80;84.86;98205.66;4999382;28;20155;-68
2022/04/10 06:27:41;;;;;;;13.98;10.73;;;;;;;7.84;85.27;98212.41;5017135;28;20142;-67
2022/04/10 06:30:08;;;;;;;13.88;9.90;;;;;;;7.80;85.20;98215.44;4998745;28;20040;-68
2022/04/10 06:32:38;;;;;;;15.23;9.73;;;;;;;7.82;84.65;98229.41;4998824;28;20037;-68
2022/04/10 06:35:04;;;;;;;11.80;9.48;;;;;;;7.83;84.56;98231.09;5016768;28;20045;-68
2022/04/10 06:37:29;;;;;;;11.00;8.32;;;;;;;7.86;85.24;98238.81;4999003;28;20189;-68
2022/04/10 06:39:54;;;;;;;9.20;7.10;;;;;;;7.84;84.84;98244.25;4998325;28;20131;-70
2022/04/10 06:42:20;;;;;;;9.02;6.20;;;;;;;7.88;84.63;98242.19;5016300;28;20060;-68
2022/04/10 06:45:16;;;;;;;9.93;6.72;;;;;;;7.70;83.87;98249.00;4919427;28;20065;-68
2022/04/10 06:47:53;;;;;;;8.10;5.75;;;;;;;7.74;83.18;98247.78;4936051;28;20049;-68
2022/04/10 06:50:19;;;;;;;6.72;3.92;;;;;;;7.37;83.05;98265.84;4920893;28;20061;-67
2022/04/10 06:52:44;;;;;;;3.75;3.00;;;;;;;7.34;81.54;98266.91;4904323;28;20137;-67
2022/04/10 06:55:11;;;;;;;2.90;2.13;;;;;;;7.21;81.01;98292.75;4935432;28;20059;-68
2022/04/10 06:57:37;;;;;;;2.78;1.85;;;;;;;7.14;81.40;98300.31;4919614;28;20097;-66
2022/04/10 07:00:02;;;;;;;2.17;1.80;;;;;;;7.07;80.46;98307.06;4919656;28;20046;-69
2022/04/10 07:02:33;;;;;;;2.30;1.90;;;;;;;6.83;79.36;98317.75;4919570;28;20059;-69
2022/04/10 07:04:57;;;;;;;1.52;1.42;;;;;;;6.86;79.53;98320.19;4920063;28;20043;-69
2022/04/10 07:07:24;;;;;;;2.92;1.70;;;;;;;6.87;80.07;98339.56;4919649;28;20138;-70
2022/04/10 07:09:49;;;;;;;2.33;1.65;;;;;;;6.88;80.12;98347.38;4935718;28;20138;-70
2022/04/10 07:12:14;;;;;;;3.72;1.70;;;;;;;6.65;79.23;98342.19;4935768;28;20096;-69
2022/04/10 07:14:43;;;;;;;1.20;0.70;;;;;;;6.70;79.47;98351.44;4919776;28;20058;-69
2022/04/10 07:17:08;;;;;;;1.85;1.38;;;;;;;6.71;79.50;98347.00;4919964;28;20125;-68
2022/04/10 07:19:33;;;;;;;3.33;1.83;;;;;;;6.71;79.54;98347.84;4938286;28;20133;-70
2022/04/10 07:24:43;;;;;;;2.45;0.90;;;;;;;6.82;78.68;98365.56;5005816;28;20045;-71
2022/04/10 07:27:08;;;;;;;3.17;1.20;;;;;;;6.73;77.12;98364.47;5024215;28;20096;-70
2022/04/10 07:29:41;;;;;;;2.58;0.85;;;;;;;6.75;77.07;98367.00;5006752;28;20052;-70
2022/04/10 07:32:09;;;;;;;0.57;0.57;;;;;;;6.89;77.48;98359.66;4987732;28;20415;-70
2022/04/10 07:34:44;;;;;;;1.05;0.98;;;;;;;7.02;77.11;98371.97;5004692;28;20032;-71
2022/04/10 07:37:16;;;;;;;2.33;1.30;;;;;;;7.16;76.86;98367.28;4999140;28;20410;-71
2022/04/10 07:39:50;;;;;;;2.15;1.40;;;;;;;7.35;76.14;98374.66;4997792;28;20482;-72
2022/04/10 07:42:22;;;;;;;1.58;1.30;;;;;;;7.50;76.27;98384.06;5014377;28;20098;-73
2022/04/10 07:44:47;;;;;;;3.47;1.90;;;;;;;7.57;75.22;98385.25;4997808;28;20044;-73
2022/04/10 07:47:25;;;;;;;7.30;1.65;;;;;;;7.60;75.14;98400.06;4997588;28;20071;-72
2022/04/10 07:49:50;;;;;;;2.22;1.55;;;;;;;7.58;74.95;98405.50;4997671;28;20130;-71
2022/04/10 07:52:15;;;;;;;1.50;1.17;;;;;;;7.53;74.13;98404.19;4997643;28;20068;-69
2022/04/10 07:54:54;;;;;;;1.85;1.55;;;;;;;7.53;74.02;98420.94;5016543;28;20106;-69
2022/04/10 07:57:19;;;;;;;3.53;2.30;;;;;;;7.56;73.57;98431.28;4998967;28;20053;-69
2022/04/10 07:59:46;;;;;;;5.35;3.03;;;;;;;7.42;72.63;98436.84;5005202;28;20289;-68
2022/04/10 08:02:16;;;;;;;4.90;2.72;;;;;;;7.47;73.29;98441.78;4997481;28;20071;-68
2022/04/10 08:04:42;;;;;;;2.05;1.92;;;;;;;7.48;72.90;98449.63;5003081;28;20053;-68
2022/04/10 08:07:16;;;;;;;2.70;1.95;;;;;;;7.52;72.09;98453.72;4998701;28;20041;-69
2022/04/10 08:09:43;;;;;;;5.10;2.42;;;;;;;7.58;72.08;98447.94;5016714;28;20056;-68
2022/04/10 08:12:09;;;;;;;3.50;2.42;;;;;;;7.69;72.76;98456.84;4998426;28;20041;-68
2022/04/10 08:14:34;;;;;;;3.08;2.05;;;;;;;7.68;71.57;98469.28;5016163;28;20045;-68
2022/04/10 08:16:59;;;;;;;2.33;1.70;;;;;;;7.78;72.09;98454.34;5016450;28;20083;-68
2022/04/10 08:19:23;;;;;;;3.03;2.13;;;;;;;7.94;71.95;98465.41;5016674;28;20068;-68
2022/04/10 08:21:48;;;;;;;2.50;1.77;;;;;;;8.09;71.76;98470.47;5018419;28;20069;-71
2022/04/10 08:24:13;;;;;;;1.13;0.90;;;;;;;8.22;70.75;98479.16;5024973;28;20131;-69
2022/04/10 08:26:38;;;;;;;1.40;1.30;;;;;;;8.26;69.80;98486.72;5024701;28;20068;-69
2022/04/10 08:29:03;;;;;;;3.28;1.55;;;;;;;8.35;69.21;98487.84;5006614;28;20041;-68
2022/04/10 08:31:29;;;;;;;2.70;2.13;;;;;;;8.38;69.30;98496.41;5015713;28;20040;-68
2022/04/10 08:33:54;;;;;;;3.35;2.60;;;;;;;8.24;68.27;98507.25;5015867;28;20495;-68
2022/04/10 08:36:19;;;;;;;2.97;2.60;;;;;;;8.23;68.63;98513.56;5015012;28;20049;-69
2022/04/10 08:38:45;;;;;;;3.10;1.90;;;;;;;8.25;69.31;98510.75;5018585;28;20048;-69
2022/04/10 08:41:11;;;;;;;1.52;1.30;;;;;;;8.25;68.17;98530.19;5000853;28;20041;-68
2022/04/10 08:43:37;;;;;;;1.98;1.65;;;;;;;8.08;68.40;98538.66;5018546;28;20403;-70
2022/04/10 08:46:03;;;;;;;3.85;2.70;;;;;;;8.18;68.15;98526.31;5018731;28;20043;-68
2022/04/10 08:48:28;;;;;;;2.63;2.00;;;;;;;8.41;68.08;98531.66;5018579;28;20045;-69
2022/04/10 08:50:57;;;;;;;4.13;3.10;;;;;;;8.51;67.14;98541.41;5018873;28;20055;-71
2022/04/10 08:53:24;;;;;;;3.80;2.20;;;;;;;8.51;67.21;98554.69;5018434;28;20441;-69
2022/04/10 08:55:48;;;;;;;3.58;2.55;;;;;;;8.34;67.07;98556.06;5018721;28;20127;-70
2022/04/10 08:58:15;;;;;;;2.20;2.00;;;;;;;8.31;67.51;98550.97;5018353;28;20049;-70
2022/04/10 09:00:43;;;;;;;1.58;1.48;;;;;;;8.30;68.04;98562.53;5001947;28;20126;-68
2022/04/10 09:03:08;;;;;;;3.70;2.10;;;;;;;8.34;67.38;98572.00;5018916;28;20045;-70
2022/04/10 09:05:33;;;;;;;1.30;1.10;;;;;;;8.42;67.08;98562.56;5019201;28;20110;-70
2022/04/10 09:08:16;;;;;;;1.65;1.30;;;;;;;8.66;66.94;98576.53;5018883;28;20044;-70
2022/04/10 09:10:54;;;;;;;6.60;2.47;;;;;;;8.73;65.16;98589.19;5019130;28;20099;-69
2022/04/10 09:13:30;;;;;;;5.47;2.03;;;;;;;8.69;65.30;98574.44;5001812;28;20045;-70
2022/04/10 09:16:15;;;;;;;9.10;3.30;;;;;;;8.68;64.80;98586.06;5019179;28;20561;-69
2022/04/10 09:18:49;;;;;;;;;;;;;;;8.86;65.93;98589.03;5020156;28;20052;-69
2022/04/10 09:21:14;;;;;;;5.88;2.90;;;;;;;8.62;65.48;98597.19;5023245;28;19947;-68
2022/04/10 09:23:39;;;;;;;2.35;2.10;;;;;;;8.52;65.83;98593.56;5017907;28;20499;-69
2022/04/10 09:26:05;;;;;;;4.15;2.47;;;;;;;8.33;65.41;98599.50;5000011;28;20341;-68
2022/04/10 09:28:49;;;;;;;3.10;2.53;;;;;;;8.25;65.25;98606.31;5018140;28;20457;-69
2022/04/10 09:31:25;;;;;;;3.30;2.25;;;;;;;8.22;66.04;98609.25;5017974;28;20045;-70
2022/04/10 09:33:50;;;;;;;3.03;2.72;;;;;;;8.08;65.51;98605.00;5018127;28;20131;-71
2022/04/10 09:36:30;;;;;;;5.13;3.00;;;;;;;8.07;66.52;98611.28;5019849;28;20095;-70
2022/04/10 09:38:54;;;;;;;2.60;2.17;;;;;;;8.00;65.83;98618.03;5018181;28;20049;-69
2022/04/10 09:41:20;;;;;;;4.00;2.28;;;;;;;8.05;66.29;98623.81;5000672;28;20045;-69
2022/04/10 09:43:45;;;;;;;3.13;2.17;;;;;;;8.09;66.11;98619.13;5000237;28;20040;-68
2022/04/10 09:46:13;;;;;;;3.85;2.50;;;;;;;8.21;65.21;98621.66;5017467;28;20036;-69
2022/04/10 09:48:39;;;;;;;3.22;2.45;;;;;;;8.35;64.66;98623.28;4985164;28;20506;-69
2022/04/10 09:51:04;;;;;;;3.25;2.95;;;;;;;8.56;64.57;98631.38;5020678;28;20045;-71
2022/04/10 09:53:30;;;;;;;3.88;2.42;;;;;;;8.76;64.14;98637.75;5019140;28;20513;-70
2022/04/10 09:55:57;;;;;;;3.72;2.80;;;;;;;9.03;63.22;98633.69;4986183;28;20044;-70
2022/04/10 09:58:22;;;;;;;3.45;2.88;;;;;;;9.27;62.27;98633.50;5027306;28;20052;-73
2022/04/10 10:00:49;;;;;;;4.07;2.95;;;;;;;9.45;61.12;98631.16;5037196;28;20416;-70
2022/04/10 10:03:15;;;;;;;4.20;3.05;;;;;;;9.64;61.67;98633.13;5027915;28;20407;-70
2022/04/10 10:05:41;;;;;;;5.72;3.00;;;;;;;9.83;60.93;98639.41;5013816;28;20450;-69
2022/04/10 10:08:07;;;;;;;4.30;3.00;;;;;;;9.94;59.22;98640.34;5009855;28;20047;-70
2022/04/10 10:10:35;;;;;;;4.10;3.10;;;;;;;10.05;58.25;98642.91;5028860;28;20040;-70
2022/04/10 10:13:02;;;;;;;4.60;3.22;;;;;;;10.19;57.83;98642.63;5027867;28;20120;-69
2022/04/10 10:15:27;;;;;;;5.18;3.30;;;;;;;10.12;57.05;98642.28;5026456;28;20102;-67
2022/04/10 10:17:53;;;;;;;4.35;3.45;;;;;;;9.94;57.56;98650.97;5025371;28;20537;-69
2022/04/10 10:20:20;;;;;;;4.57;3.38;;;;;;;9.94;57.97;98661.63;5001127;28;20049;-68
2022/04/10 10:22:46;;;;;;;6.00;3.40;;;;;;;9.99;57.71;98654.09;4984581;28;20395;-68
2022/04/10 10:25:17;;;;;;;3.85;2.58;;;;;;;10.02;57.91;98649.38;5018742;28;20114;-71
2022/04/10 10:28:00;;;;;;;4.40;3.40;;;;;;;10.00;57.68;98650.47;5019234;28;20041;-70
2022/04/10 10:30:51;;;;;;;8.45;4.82;;;;;;;10.04;58.13;98655.44;5002352;28;20045;-70
2022/04/10 10:33:19;;;;;;;8.15;4.13;;;;;;;10.08;57.29;98656.84;5018404;28;20033;-69
2022/04/10 10:35:49;;;;;;;4.40;3.45;;;;;;;10.13;57.69;98665.28;5018381;28;20048;-68
2022/04/10 10:38:26;;;;;;;7.18;3.38;;;;;;;10.05;57.20;98667.72;5001335;28;20036;-70
2022/04/10 10:41:09;;;;;;;3.70;3.33;;;;;;;9.97;57.03;98672.88;5018054;28;20063;-69
2022/04/10 10:43:34;;;;;;;6.13;4.22;;;;;;;10.13;57.49;98683.09;4994804;28;20758;-70
2022/04/10 10:45:59;;;;;;;5.72;3.70;;;;;;;10.28;56.90;98681.78;5016592;28;20132;-71
2022/04/10 10:48:37;;;;;;;6.28;4.05;;;;;;;10.50;57.25;98678.13;5019685;28;20123;-69
2022/04/10 10:51:11;;;;;;;6.47;4.60;;;;;;;10.55;55.42;98682.09;5017896;28;20113;-67
2022/04/10 10:53:45;;;;;;;5.63;3.90;;;;;;;10.58;54.07;98680.16;5018762;28;20055;-68
2022/04/10 10:56:19;;;;;;;4.95;3.45;;;;;;;10.63;55.12;98684.09;5017024;28;20156;-70
2022/04/10 10:58:47;;;;;;;5.60;3.78;;;;;;;10.54;54.99;98693.72;5016475;28;20091;-71
2022/04/10 11:01:19;;;;;;;6.25;4.10;;;;;;;10.38;53.36;98695.19;5002952;28;20059;-69
2022/04/10 11:04:09;;;;;;;7.07;4.50;;;;;;;10.44;53.94;98699.97;5016575;28;20407;-69
2022/04/10 11:06:45;;;;;;;6.10;3.80;;;;;;;10.33;54.16;98708.06;5011035;28;20495;-71
2022/04/10 11:09:21;;;;;;;7.43;4.20;;;;;;;10.30;55.05;98708.31;5006569;28;20037;-69
2022/04/10 11:11:47;;;;;;;11.20;3.55;;;;;;;10.22;55.00;98714.28;5016035;28;20072;-69
2022/04/10 11:14:31;;;;;;;4.55;3.63;;;;;;;10.20;52.93;98713.56;5016741;28;20538;-69
2022/04/10 11:17:15;;;;;;;5.00;2.83;;;;;;;10.08;54.52;98709.25;5010914;28;20430;-69
2022/04/10 11:19:47;;;;;;;6.63;3.80;;;;;;;9.84;55.50;98715.66;4997444;28;20065;-70
2022/04/10 11:22:29;;;;;;;4.63;4.00;;;;;;;9.85;56.07;98719.16;4996995;28;20056;-69
2022/04/10 11:24:58;;;;;;;4.25;3.75;;;;;;;9.69;55.52;98729.41;4995868;28;20041;-71
2022/04/10 11:27:43;;;;;;;6.18;3.97;;;;;;;9.79;56.25;98719.69;4979770;28;20056;-70
2022/04/10 11:30:09;;;;;;;3.92;3.45;;;;;;;9.73;56.77;98718.34;4997112;28;20438;-68
2022/04/10 11:32:51;;;;;;;4.72;4.05;;;;;;;9.83;56.98;98719.28;4979354;28;20473;-71
2022/04/10 11:35:27;;;;;;;5.40;4.05;;;;;;;9.80;56.43;98719.56;4978611;28;20065;-74
2022/04/10 11:37:55;;;;;;;4.18;3.33;;;;;;;9.78;55.56;98715.31;5022342;28;20045;-69
2022/04/10 11:40:23;;;;;;;4.45;3.80;;;;;;;9.83;56.13;98708.63;5011970;28;20046;-69
2022/04/10 11:42:48;;;;;;;8.30;4.13;;;;;;;9.91;56.10;98709.84;5018861;28;20049;-69
2022/04/10 11:45:12;;;;;;;8.75;5.32;;;;;;;9.97;56.20;98704.81;5002390;28;20045;-69
2022/04/10 11:47:42;;;;;;;5.63;3.80;;;;;;;10.03;55.74;98708.81;5017671;28;20045;-70
2022/04/10 11:50:09;;;;;;;6.15;4.25;;;;;;;9.99;55.30;98721.53;4998160;28;20045;-69
2022/04/10 11:52:34;;;;;;;5.93;4.00;;;;;;;9.97;55.44;98723.47;5015539;28;20098;-70
2022/04/10 11:54:59;;;;;;;6.32;4.43;;;;;;;9.97;55.97;98730.59;5015739;28;20040;-71
2022/04/10 11:57:24;;;;;;;5.90;3.83;;;;;;;9.96;55.79;98729.75;4997418;28;20102;-70
2022/04/10 11:59:49;;;;;;;7.10;3.97;;;;;;;9.96;55.93;98729.75;5013938;28;20075;-73
2022/04/10 12:02:14;;;;;;;7.53;3.80;;;;;;;9.97;54.92;98730.59;5016247;28;20041;-70